createdAt,value
2022-10-24T00:01:44.810Z,101466.19
2022-10-24T00:04:12.771Z,101460.23
2022-10-24T00:06:41.795Z,101453.77
2022-10-24T00:09:10.347Z,101454.30
2022-10-24T00:11:38.725Z,101459.02
2022-10-24T00:14:06.898Z,101455.54
2022-10-24T00:16:35.963Z,101459.04
2022-10-24T00:19:04.656Z,101460.81
2022-10-24T00:21:32.645Z,101462.41
2022-10-24T00:24:00.605Z,101462.06
2022-10-24T00:26:30.219Z,101461.20
2022-10-24T00:28:58.527Z,101451.77
2022-10-24T00:31:27.078Z,101448.79
2022-10-24T00:33:56.823Z,101451.39
2022-10-24T00:36:25.160Z,101454.20
2022-10-24T00:38:53.642Z,101451.58
2022-10-24T00:41:37.794Z,101448.60
2022-10-24T00:44:22.186Z,101453.33
2022-10-24T00:46:55.848Z,101456.30
2022-10-24T00:49:30.219Z,101457.17
2022-10-24T00:52:04.145Z,101444.94
2022-10-24T00:54:32.753Z,101444.77
2022-10-24T00:57:04.920Z,101440.57
2022-10-24T00:59:35.158Z,101438.82
2022-10-24T01:02:03.487Z,101439.70
2022-10-24T01:04:31.591Z,101438.48
2022-10-24T01:07:05.551Z,101428.86
2022-10-24T01:09:57.123Z,101417.50
2022-10-24T01:12:54.373Z,101405.61
2022-10-24T01:15:49.298Z,101405.63
2022-10-24T01:18:29.537Z,101399.69
2022-10-24T01:21:25.759Z,101396.20
2022-10-24T01:24:21.420Z,101391.85
2022-10-24T01:27:27.643Z,101383.47
2022-10-24T01:30:10.169Z,101378.93
2022-10-24T01:32:48.563Z,101374.40
2022-10-24T01:35:37.229Z,101371.95
2022-10-24T01:38:15.121Z,101370.90
2022-10-24T01:41:01.338Z,101365.84
2022-10-24T01:43:35.118Z,101366.71
2022-10-24T01:46:11.187Z,101375.11
2022-10-24T01:48:45.494Z,101374.77
2022-10-24T01:51:16.835Z,101376.16
2022-10-24T01:53:46.449Z,101372.31
2022-10-24T01:56:14.518Z,101373.89
2022-10-24T01:58:42.488Z,101377.04
2022-10-24T02:01:16.350Z,101377.02
2022-10-24T02:03:50.824Z,101363.94
2022-10-24T02:06:25.023Z,101348.56
2022-10-24T02:08:58.582Z,101344.38
2022-10-24T02:11:26.598Z,101347.87
2022-10-24T02:14:03.067Z,101339.65
2022-10-24T02:16:32.107Z,101336.67
2022-10-24T02:19:00.739Z,101327.41
2022-10-24T02:21:53.754Z,101330.91
2022-10-24T02:24:29.408Z,101326.55
2022-10-24T02:27:03.251Z,101326.71
2022-10-24T02:29:43.137Z,101321.30
2022-10-24T02:32:17.924Z,101324.79
2022-10-24T02:34:48.219Z,101319.36
2022-10-24T02:37:17.199Z,101321.80
2022-10-24T02:39:48.178Z,101311.14
2022-10-24T02:42:16.909Z,101319.16
2022-10-24T02:44:48.306Z,101317.94
2022-10-24T02:47:19.294Z,101312.00
2022-10-24T02:49:47.827Z,101312.51
2022-10-24T02:52:16.719Z,101302.90
2022-10-24T02:54:45.098Z,101304.46
2022-10-24T02:57:15.337Z,101296.42
2022-10-24T02:59:43.491Z,101296.41
2022-10-24T03:02:11.393Z,101294.67
2022-10-24T03:04:39.320Z,101292.38
2022-10-24T03:07:07.766Z,101294.11
2022-10-24T03:09:35.771Z,101294.27
2022-10-24T03:12:05.378Z,101301.27
2022-10-24T03:14:34.576Z,101299.16
2022-10-24T03:17:02.542Z,101298.10
2022-10-24T03:19:30.511Z,101296.34
2022-10-24T03:21:58.690Z,101286.06
2022-10-24T03:24:37.056Z,101277.14
2022-10-24T03:27:12.439Z,101281.50
2022-10-24T03:29:40.453Z,101276.41
2022-10-24T03:32:08.688Z,101280.41
2022-10-24T03:34:36.958Z,101282.31
2022-10-24T03:37:05.276Z,101270.58
2022-10-24T03:39:33.198Z,101260.77
2022-10-24T03:42:01.281Z,101263.38
2022-10-24T03:44:29.224Z,101268.77
2022-10-24T03:46:57.307Z,101262.48
2022-10-24T03:49:25.283Z,101259.15
2022-10-24T03:51:53.454Z,101252.48
2022-10-24T03:54:21.358Z,101251.60
2022-10-24T03:56:50.109Z,101255.79
2022-10-24T03:59:18.378Z,101253.34
2022-10-24T04:01:46.506Z,101256.12
2022-10-24T04:04:14.627Z,101254.91
2022-10-24T04:06:42.796Z,101249.14
2022-10-24T04:09:10.764Z,101244.42
2022-10-24T04:11:38.834Z,101241.09
2022-10-24T04:14:06.841Z,101242.66
2022-10-24T04:16:35.327Z,101234.96
2022-10-24T04:19:04.312Z,101235.48
2022-10-24T04:21:32.547Z,101231.14
2022-10-24T04:24:00.520Z,101226.95
2022-10-24T04:26:28.691Z,101226.23
2022-10-24T04:28:56.604Z,101224.31
2022-10-24T04:31:24.524Z,101230.59
2022-10-24T04:33:52.494Z,101230.23
2022-10-24T04:36:21.280Z,101232.84
2022-10-24T04:38:49.225Z,101243.20
2022-10-24T04:41:17.216Z,101244.41
2022-10-24T04:43:45.192Z,101245.80
2022-10-24T04:46:13.301Z,101239.15
2022-10-24T04:48:41.204Z,101231.79
2022-10-24T04:51:09.292Z,101228.60
2022-10-24T04:53:37.363Z,101223.16
2022-10-24T04:56:06.178Z,101216.50
2022-10-24T04:58:34.224Z,101210.71
2022-10-24T05:01:02.462Z,101200.54
2022-10-24T05:03:30.571Z,101191.42
2022-10-24T05:05:58.739Z,101178.33
2022-10-24T05:08:27.842Z,101169.41
2022-10-24T05:10:55.805Z,101162.41
2022-10-24T05:13:23.724Z,101159.63
2022-10-24T05:15:51.740Z,101164.02
2022-10-24T05:18:19.815Z,101164.36
2022-10-24T05:20:47.882Z,101167.17
2022-10-24T05:23:15.846Z,101167.00
2022-10-24T05:25:43.743Z,101166.84
2022-10-24T05:28:12.402Z,101170.86
2022-10-24T05:30:40.376Z,101178.00
2022-10-24T05:33:08.335Z,101178.70
2022-10-24T05:35:36.639Z,101183.77
2022-10-24T05:38:04.985Z,101193.92
2022-10-24T05:40:33.261Z,101204.45
2022-10-24T05:43:01.232Z,101214.09
2022-10-24T05:45:29.204Z,101213.72
2022-10-24T05:47:57.271Z,101220.34
2022-10-24T05:50:26.982Z,101216.45
2022-10-24T05:52:54.946Z,101214.67
2022-10-24T05:55:23.480Z,101211.88
2022-10-24T05:57:51.603Z,101214.13
2022-10-24T06:00:20.130Z,101216.20
2022-10-24T06:02:48.243Z,101218.65
2022-10-24T06:05:16.321Z,101215.84
2022-10-24T06:07:45.763Z,101218.44
2022-10-24T06:10:15.023Z,101223.66
2022-10-24T06:12:43.526Z,101231.02
2022-10-24T06:15:13.590Z,101227.86
2022-10-24T06:17:41.533Z,101222.64
2022-10-24T06:20:10.393Z,101221.40
2022-10-24T06:22:38.959Z,101217.36
2022-10-24T06:25:07.426Z,101218.57
2022-10-24T06:27:35.308Z,101218.20
2022-10-24T06:30:04.613Z,101224.29
2022-10-24T06:32:33.978Z,101224.79
2022-10-24T06:35:02.283Z,101226.86
2022-10-24T06:37:30.516Z,101220.88
2022-10-24T06:39:58.526Z,101220.15
2022-10-24T06:42:26.596Z,101222.75
2022-10-24T06:44:54.607Z,101232.54
2022-10-24T06:47:22.838Z,101234.80
2022-10-24T06:49:50.780Z,101237.08
2022-10-24T06:52:18.776Z,101242.19
2022-10-24T06:54:46.846Z,101241.50
2022-10-24T06:57:15.024Z,101239.73
2022-10-24T06:59:42.985Z,101233.99
2022-10-24T07:02:14.161Z,101229.27
2022-10-24T07:04:42.573Z,101225.23
2022-10-24T07:07:18.667Z,101220.83
2022-10-24T07:09:52.777Z,101215.20
2022-10-24T07:12:25.456Z,101201.19
2022-10-24T07:14:53.584Z,101192.91
2022-10-24T07:17:21.599Z,101183.78
2022-10-24T07:19:54.173Z,101177.83
2022-10-24T07:22:23.374Z,101172.36
2022-10-24T07:24:56.172Z,101167.11
2022-10-24T07:27:24.686Z,101163.91
2022-10-24T07:29:54.138Z,101165.46
2022-10-24T07:32:22.214Z,101172.07
2022-10-24T07:34:50.402Z,101179.23
2022-10-24T07:37:19.494Z,101173.64
2022-10-24T07:39:47.853Z,101171.34
2022-10-24T07:42:17.134Z,101164.14
2022-10-24T07:44:45.765Z,101164.64
2022-10-24T07:47:13.701Z,101168.11
2022-10-24T07:49:41.713Z,101174.58
2022-10-24T07:52:09.715Z,101178.77
2022-10-24T07:54:37.744Z,101187.85
2022-10-24T07:57:05.855Z,101191.19
2022-10-24T07:59:42.109Z,101194.34
2022-10-24T08:02:12.702Z,101202.61
2022-10-24T08:04:41.387Z,101201.37
2022-10-24T08:07:15.321Z,101207.48
2022-10-24T08:09:47.901Z,101206.95
2022-10-24T08:12:16.107Z,101210.12
2022-10-24T08:14:44.432Z,101210.70
2022-10-24T08:17:12.423Z,101210.65
2022-10-24T08:19:44.507Z,101216.59
2022-10-24T08:22:12.702Z,101216.52
2022-10-24T08:24:43.432Z,101211.42
2022-10-24T08:27:12.141Z,101206.67
2022-10-24T08:29:41.005Z,101204.20
2022-10-24T08:32:09.075Z,101203.69
2022-10-24T08:34:38.354Z,101201.60
2022-10-24T08:37:06.547Z,101199.98
2022-10-24T08:39:34.723Z,101206.80
2022-10-24T08:42:06.050Z,101210.96
2022-10-24T08:44:42.862Z,101209.02
2022-10-24T08:47:26.178Z,101205.52
2022-10-24T08:50:12.011Z,101207.25
2022-10-24T08:52:42.182Z,101208.84
2022-10-24T08:55:30.835Z,101210.02
2022-10-24T08:58:06.393Z,101206.35
2022-10-24T09:00:40.999Z,101209.79
2022-10-24T09:03:31.440Z,101212.40
2022-10-24T09:06:20.296Z,101210.12
2022-10-24T09:08:56.103Z,101205.77
2022-10-24T09:11:42.407Z,101202.91
2022-10-24T09:14:18.866Z,101203.06
2022-10-24T09:16:52.943Z,101198.48
2022-10-24T09:19:26.243Z,101196.40
2022-10-24T09:21:56.803Z,101192.55
2022-10-24T09:24:45.373Z,101188.51
2022-10-24T09:27:24.193Z,101181.36
2022-10-24T09:29:52.791Z,101185.05
2022-10-24T09:32:23.965Z,101189.61
2022-10-24T09:34:51.868Z,101194.34
2022-10-24T09:37:43.943Z,101193.25
2022-10-24T09:40:28.541Z,101198.16
2022-10-24T09:43:11.829Z,101196.61
2022-10-24T09:45:46.752Z,101197.15
2022-10-24T09:48:27.549Z,101200.44
2022-10-24T09:51:00.442Z,101200.81
2022-10-24T09:53:38.576Z,101197.66
2022-10-24T09:56:12.492Z,101195.89
2022-10-24T09:58:41.068Z,101196.91
2022-10-24T10:01:15.167Z,101203.19
2022-10-24T10:03:44.055Z,101203.01
2022-10-24T10:06:20.128Z,101205.23
2022-10-24T10:08:54.748Z,101204.91
2022-10-24T10:11:31.480Z,101202.59
2022-10-24T10:14:02.217Z,101208.70
2022-10-24T10:16:38.437Z,101209.18
2022-10-24T10:19:20.515Z,101216.85
2022-10-24T10:22:02.083Z,101214.58
2022-10-24T10:24:32.829Z,101212.50
2022-10-24T10:27:00.733Z,101205.31
2022-10-24T10:29:28.663Z,101194.63
2022-10-24T10:32:23.479Z,101180.90
2022-10-24T10:35:10.787Z,101174.58
2022-10-24T10:37:59.441Z,101179.23
2022-10-24T10:40:37.656Z,101170.98
2022-10-24T10:43:28.655Z,101164.15
2022-10-24T10:46:24.765Z,101163.84
2022-10-24T10:48:59.328Z,101152.49
2022-10-24T10:51:47.768Z,101148.60
2022-10-24T10:54:42.143Z,101138.98
2022-10-24T10:57:37.962Z,101143.77
2022-10-24T11:00:26.109Z,101146.86
2022-10-24T11:03:34.218Z,101135.13
2022-10-24T11:06:33.125Z,101143.69
2022-10-24T11:09:12.953Z,101140.86
2022-10-24T11:11:48.907Z,101132.26
2022-10-24T11:14:19.759Z,101128.03
2022-10-24T11:16:49.636Z,101126.80
2022-10-24T11:19:34.212Z,101124.44
2022-10-24T11:22:05.193Z,101124.52
2022-10-24T11:24:43.452Z,101119.27
2022-10-24T11:27:21.874Z,101114.79
2022-10-24T11:29:57.359Z,101110.54
2022-10-24T11:32:29.911Z,101108.06
2022-10-24T11:35:05.645Z,101105.02
2022-10-24T11:37:38.870Z,101110.40
2022-10-24T11:40:13.266Z,101116.65
2022-10-24T11:43:02.905Z,101117.18
2022-10-24T11:45:45.234Z,101116.30
2022-10-24T11:48:24.233Z,101117.51
2022-10-24T11:51:01.033Z,101121.02
2022-10-24T11:53:29.114Z,101117.52
2022-10-24T11:56:03.673Z,101112.80
2022-10-24T11:58:33.737Z,101115.75
2022-10-24T12:01:30.129Z,101108.66
2022-10-24T12:04:22.980Z,101106.94
2022-10-24T12:07:31.532Z,101107.55
2022-10-24T12:10:25.837Z,101109.52
2022-10-24T12:13:05.752Z,101109.09
2022-10-24T12:15:59.249Z,101112.46
2022-10-24T12:18:41.451Z,101110.70
2022-10-24T12:21:14.333Z,101110.98
2022-10-24T12:23:43.373Z,101109.20
2022-10-24T12:26:14.413Z,101106.56
2022-10-24T12:28:43.688Z,101100.41
2022-10-24T12:31:15.125Z,101092.56
2022-10-24T12:33:44.133Z,101086.15
2022-10-24T12:36:12.400Z,101077.91
2022-10-24T12:38:40.356Z,101080.73
2022-10-24T12:41:33.715Z,101077.11
2022-10-24T12:44:25.444Z,101078.11
2022-10-24T12:46:55.011Z,101068.02
2022-10-24T12:49:32.008Z,101069.95
2022-10-24T12:52:31.738Z,101067.50
2022-10-24T12:55:00.137Z,101066.48
2022-10-24T12:57:32.890Z,101066.98
2022-10-24T13:00:01.994Z,101069.76
2022-10-24T13:02:48.973Z,101071.16
2022-10-24T13:05:35.857Z,101069.62
2022-10-24T13:08:12.848Z,101075.81
2022-10-24T13:10:48.852Z,101077.96
2022-10-24T13:13:34.898Z,101075.71
2022-10-24T13:16:08.586Z,101075.98
2022-10-24T13:18:54.545Z,101080.58
2022-10-24T13:21:53.157Z,101082.38
2022-10-24T13:24:27.131Z,101083.92
2022-10-24T13:26:56.124Z,101089.85
2022-10-24T13:29:23.991Z,101082.25
2022-10-24T13:32:15.358Z,101084.33
2022-10-24T13:34:49.034Z,101092.93
2022-10-24T13:37:24.570Z,101094.45
2022-10-24T13:39:58.258Z,101095.65
2022-10-24T13:42:55.348Z,101102.45
2022-10-24T13:45:33.455Z,101111.30
2022-10-24T13:48:08.007Z,101107.84
2022-10-24T13:50:46.730Z,101099.40
2022-10-24T13:53:30.870Z,101094.84
2022-10-24T13:56:10.656Z,101096.71
2022-10-24T13:58:44.691Z,101097.38
2022-10-24T14:01:21.468Z,101095.39
2022-10-24T14:03:52.173Z,101092.93
2022-10-24T14:06:29.081Z,101095.21
2022-10-24T14:09:06.970Z,101092.39
2022-10-24T14:11:40.891Z,101090.64
2022-10-24T14:14:26.782Z,101094.48
2022-10-24T14:17:22.995Z,101096.40
2022-10-24T14:19:58.355Z,101084.30
2022-10-24T14:22:30.783Z,101083.25
2022-10-24T14:24:58.723Z,101084.64
2022-10-24T14:27:26.923Z,101082.84
2022-10-24T14:30:04.085Z,101085.42
2022-10-24T14:32:32.272Z,101089.13
2022-10-24T14:37:36.368Z,101087.02
2022-10-24T14:40:05.742Z,101091.52
2022-10-24T14:42:34.426Z,101092.89
2022-10-24T14:45:02.733Z,101094.98
2022-10-24T14:47:36.525Z,101088.29
2022-10-24T14:50:37.532Z,101094.08
2022-10-24T14:53:06.919Z,101096.48
2022-10-24T14:55:34.895Z,101088.83
2022-10-24T14:58:03.055Z,101083.55
2022-10-24T15:00:39.118Z,101082.35
2022-10-24T15:03:07.188Z,101081.17
2022-10-24T15:05:36.486Z,101071.75
2022-10-24T15:08:22.214Z,101070.18
2022-10-24T15:11:05.426Z,101070.63
2022-10-24T15:13:34.289Z,101070.33
2022-10-24T15:16:02.353Z,101071.73
2022-10-24T15:18:43.533Z,101077.34
2022-10-24T15:21:19.998Z,101077.20
2022-10-24T15:23:51.764Z,101081.29
2022-10-24T15:26:24.406Z,101080.26
2022-10-24T15:29:07.941Z,101076.60
2022-10-24T15:31:39.457Z,101080.13
2022-10-24T15:34:10.330Z,101081.00
2022-10-24T15:36:43.493Z,101079.78
2022-10-24T15:39:11.408Z,101085.05
2022-10-24T15:41:40.568Z,101079.41
2022-10-24T15:44:21.758Z,101074.86
2022-10-24T15:46:49.815Z,101070.19
2022-10-24T15:49:18.190Z,101072.45
2022-10-24T15:51:50.210Z,101070.88
2022-10-24T15:54:20.793Z,101074.27
2022-10-24T15:56:49.852Z,101070.26
2022-10-24T15:59:20.267Z,101065.74
2022-10-24T16:01:54.200Z,101059.94
2022-10-24T16:04:22.834Z,101057.36
2022-10-24T16:06:51.491Z,101056.27
2022-10-24T16:09:26.660Z,101054.71
2022-10-24T16:11:55.669Z,101058.00
2022-10-24T16:14:26.306Z,101060.95
2022-10-24T16:16:55.427Z,101062.71
2022-10-24T16:19:26.531Z,101064.83
2022-10-24T16:21:59.683Z,101059.73
2022-10-24T16:24:28.909Z,101060.13
2022-10-24T16:26:57.385Z,101060.83
2022-10-24T16:29:25.350Z,101060.45
2022-10-24T16:31:53.320Z,101064.43
2022-10-24T16:34:21.392Z,101068.91
2022-10-24T16:36:54.551Z,101073.11
2022-10-24T16:39:24.394Z,101071.66
2022-10-24T16:41:56.067Z,101064.95
2022-10-24T16:44:24.424Z,101065.97
2022-10-24T16:46:53.827Z,101068.96
2022-10-24T16:49:22.010Z,101069.12
2022-10-24T16:51:49.967Z,101071.14
2022-10-24T16:54:19.574Z,101071.96
2022-10-24T16:56:53.665Z,101069.11
2022-10-24T16:59:22.268Z,101068.19
2022-10-24T17:01:50.464Z,101065.23
2022-10-24T17:04:18.660Z,101069.06
2022-10-24T17:06:46.818Z,101064.52
2022-10-24T17:09:15.265Z,101072.07
2022-10-24T17:11:45.785Z,101069.06
2022-10-24T17:14:14.875Z,101070.99
2022-10-24T17:16:45.215Z,101077.33
2022-10-24T17:19:17.450Z,101079.99
2022-10-24T17:21:48.830Z,101077.77
2022-10-24T17:24:20.072Z,101073.02
2022-10-24T17:26:49.269Z,101070.59
2022-10-24T17:29:33.113Z,101068.84
2022-10-24T17:32:01.383Z,101068.06
2022-10-24T17:34:30.052Z,101072.48
2022-10-24T17:37:18.181Z,101072.02
2022-10-24T17:39:52.732Z,101072.65
2022-10-24T17:42:21.389Z,101079.16
2022-10-24T17:44:49.968Z,101076.02
2022-10-24T17:47:18.076Z,101074.46
2022-10-24T17:49:46.046Z,101071.31
2022-10-24T17:52:21.278Z,101077.83
2022-10-24T17:54:49.758Z,101078.02
2022-10-24T17:57:17.731Z,101078.40
2022-10-24T17:59:45.692Z,101086.11
2022-10-24T18:02:14.723Z,101088.71
2022-10-24T18:04:45.527Z,101088.36
2022-10-24T18:07:14.206Z,101086.25
2022-10-24T18:09:42.277Z,101082.05
2022-10-24T18:12:10.654Z,101080.83
2022-10-24T18:14:38.698Z,101081.52
2022-10-24T18:17:06.815Z,101084.35
2022-10-24T18:19:34.873Z,101086.12
2022-10-24T18:22:03.118Z,101084.71
2022-10-24T18:24:31.092Z,101081.41
2022-10-24T18:26:59.074Z,101078.94
2022-10-24T18:29:27.351Z,101077.34
2022-10-24T18:31:55.350Z,101075.92
2022-10-24T18:34:23.286Z,101067.12
2022-10-24T18:36:51.178Z,101065.49
2022-10-24T18:39:19.555Z,101067.08
2022-10-24T18:41:54.564Z,101064.27
2022-10-24T18:44:29.114Z,101064.84
2022-10-24T18:47:03.195Z,101059.59
2022-10-24T18:49:33.777Z,101052.02
2022-10-24T18:52:01.877Z,101051.65
2022-10-24T18:54:30.873Z,101053.55
2022-10-24T18:57:00.821Z,101054.60
2022-10-24T18:59:31.029Z,101048.83
2022-10-24T19:02:14.552Z,101047.08
2022-10-24T19:04:44.372Z,101044.48
2022-10-24T19:07:12.447Z,101043.77
2022-10-24T19:09:40.385Z,101040.77
2022-10-24T19:12:09.324Z,101038.14
2022-10-24T19:14:37.690Z,101033.20
2022-10-24T19:17:06.057Z,101028.42
2022-10-24T19:19:35.278Z,101025.91
2022-10-24T19:22:03.425Z,101021.71
2022-10-24T19:24:32.146Z,101027.45
2022-10-24T19:27:00.182Z,101029.34
2022-10-24T19:29:28.197Z,101026.30
2022-10-24T19:31:56.221Z,101021.52
2022-10-24T19:34:24.288Z,101016.91
2022-10-24T19:36:52.361Z,101014.29
2022-10-24T19:39:20.537Z,101012.56
2022-10-24T19:41:48.603Z,101007.33
2022-10-24T19:44:16.678Z,101008.55
2022-10-24T19:46:44.643Z,101006.59
2022-10-24T19:49:12.712Z,101004.46
2022-10-24T19:51:40.678Z,100997.77
2022-10-24T19:54:08.648Z,100999.81
2022-10-24T19:56:36.616Z,100995.04
2022-10-24T19:59:04.796Z,100993.95
2022-10-24T20:01:32.882Z,100986.21
2022-10-24T20:04:01.337Z,100980.60
2022-10-24T20:06:29.410Z,100977.80
2022-10-24T20:08:57.485Z,100982.71
2022-10-24T20:11:25.563Z,100984.77
2022-10-24T20:13:53.552Z,100987.50
2022-10-24T20:16:21.905Z,100988.16
2022-10-24T20:18:49.864Z,100988.13
2022-10-24T20:21:19.355Z,100985.27
2022-10-24T20:23:48.581Z,100984.91
2022-10-24T20:26:23.086Z,100989.84
2022-10-24T20:28:53.056Z,100991.27
2022-10-24T20:31:29.087Z,100993.90
2022-10-24T20:34:06.790Z,100992.14
2022-10-24T20:36:42.753Z,100993.37
2022-10-24T20:39:12.226Z,100992.64
2022-10-24T20:41:40.285Z,100990.65
2022-10-24T20:44:09.365Z,100991.33
2022-10-24T20:46:37.347Z,100995.84
2022-10-24T20:49:05.419Z,100997.56
2022-10-24T20:51:33.885Z,101004.38
2022-10-24T20:54:02.142Z,101006.80
2022-10-24T20:56:30.341Z,101013.09
2022-10-24T20:58:58.309Z,101016.48
2022-10-24T21:01:28.750Z,101011.91
2022-10-24T21:03:58.447Z,101010.54
2022-10-24T21:06:29.411Z,101012.27
2022-10-24T21:09:00.306Z,101005.05
2022-10-24T21:11:30.856Z,101000.65
2022-10-24T21:14:02.095Z,100995.37
2022-10-24T21:16:30.883Z,100994.16
2022-10-24T21:18:59.776Z,100994.70
2022-10-24T21:21:28.449Z,100991.36
2022-10-24T21:24:02.434Z,100987.52
2022-10-24T21:26:39.859Z,100988.04
2022-10-24T21:29:15.066Z,100994.00
2022-10-24T21:31:56.900Z,100988.41
2022-10-24T21:34:26.687Z,100989.48
2022-10-24T21:36:56.814Z,100988.77
2022-10-24T21:39:25.500Z,100994.38
2022-10-24T21:41:53.570Z,100999.98
2022-10-24T21:44:23.512Z,100998.18
2022-10-24T21:46:52.128Z,100996.41
2022-10-24T21:49:21.166Z,101003.77
2022-10-24T21:51:49.370Z,101007.77
2022-10-24T21:54:20.978Z,101009.30
2022-10-24T21:56:49.791Z,101013.14
2022-10-24T21:59:20.380Z,101016.44
2022-10-24T22:01:50.691Z,101014.34
2022-10-24T22:04:19.658Z,101018.75
2022-10-24T22:06:48.518Z,101017.17
2022-10-24T22:09:20.067Z,101020.66
2022-10-24T22:11:47.979Z,101029.08
2022-10-24T22:14:17.376Z,101025.93
2022-10-24T22:16:45.712Z,101024.52
2022-10-24T22:19:14.160Z,101024.86
2022-10-24T22:21:44.670Z,101031.15
2022-10-24T22:24:15.510Z,101033.95
2022-10-24T22:26:43.861Z,101036.95
2022-10-24T22:29:15.028Z,101040.25
2022-10-24T22:31:44.070Z,101039.54
2022-10-24T22:34:17.459Z,101038.13
2022-10-24T22:36:57.660Z,101038.50
2022-10-24T22:39:27.037Z,101042.89
2022-10-24T22:41:56.159Z,101045.17
2022-10-24T22:44:24.565Z,101048.33
2022-10-24T22:47:16.415Z,101049.22
2022-10-24T22:50:03.946Z,101049.64
2022-10-24T22:52:32.438Z,101051.44
2022-10-24T22:55:03.737Z,101055.33
2022-10-24T22:57:33.011Z,101056.60
2022-10-24T23:00:01.765Z,101054.68
2022-10-24T23:02:33.945Z,101055.02
2022-10-24T23:05:10.292Z,101060.29
2022-10-24T23:07:47.681Z,101062.98
2022-10-24T23:10:22.093Z,101062.30
2022-10-24T23:12:50.684Z,101060.77
2022-10-24T23:15:21.203Z,101059.04
2022-10-24T23:17:50.252Z,101056.60
2022-10-24T23:20:47.756Z,101055.93
2022-10-24T23:23:28.809Z,101056.04
2022-10-24T23:26:08.266Z,101055.41
2022-10-24T23:28:54.874Z,101055.64
2022-10-24T23:31:23.160Z,101052.36
2022-10-24T23:33:51.525Z,101051.16
2022-10-24T23:36:25.172Z,101046.41
2022-10-24T23:38:57.052Z,101044.55
2022-10-24T23:41:25.592Z,101039.49
2022-10-24T23:43:54.088Z,101049.37
2022-10-24T23:46:32.055Z,101046.73
2022-10-24T23:49:31.758Z,101046.42
2022-10-24T23:52:10.540Z,101045.77
2022-10-24T23:54:39.487Z,101046.48
2022-10-24T23:57:17.280Z,101051.73
2022-10-24T23:59:45.857Z,101056.50
